Tiempo atmosférico en la estación meteorológica de Cubillas de Rueda, León (916 m.)



Fecha
DESCASC
Temp. máxima en grados centígrados (hora)
DESCASC
Temp. mínima en grados centígrados (hora)
DESCASC
Temp. media en grados centígrados
DESCASC
Racha de viento máxima en m/sg (hora)
DESCASC
Velocidad máxima media en intervalos de 10 minutos(hora)
DESCASC
Precipitaciones diarias en mm
DESCASC
Precipitaciones de 00:00 a 06:00 en mm
DESCASC
Precipitaciones de 06:00 a 12:00 en mm
DESCASC
Precipitaciones de 12:00 a 18:00 en mm
DESCASC
Precipitaciones de 18:00 a 24:00 en mm
DESCASC
23-05-2018 22.6 (17:50) 11.1 (06:20) 16.9 8.89 (18:40) 6.11 (21:10) 1.4 0 0 0 1.4
22-05-2018 24.3 (18:30) 7.1 (07:30) 15.7 8.06 (21:10) 5.28 (21:10) 0 0 0 0 0
21-05-2018 21.6 (14:50) 4.4 (07:10) 13 11.67 (15:10) 7.5 (15:10) 0 0 0 0 0
20-05-2018 22.2 (17:00) 3.4 (00:00) 12.8 12.22 (16:30) 5 (17:10) 0 0 0 0 0
19-05-2018 21.8 (16:20) 5.2 (00:00) 13.5 10 (17:20) 7.22 (17:40) 0.2 0 0 0 0.2
18-05-2018 21 (17:20) 4.6 (00:00) 12.8 10.56 (18:00) 6.11 (13:00) 0 0 0 0 0
17-05-2018 22.1 (16:00) 4.6 (00:00) 13.4 9.72 (14:50) 5.83 (18:30) 0 0 0 0 0
16-05-2018 21.4 (16:00) -0.1 (00:00) 10.6 11.39 (15:30) 6.11 (18:10) 0 0 0 0 0
15-05-2018 21 (17:20) -1.7 (-00:0) 9.6 8.33 (20:30) 5 (20:40) 0 0 0 0 0
14-05-2018 15.9 (18:10) 5.2 (00:00) 10.5 9.44 (20:30) 6.11 (20:20) 3.8 2 1.6 0.2 0
13-05-2018 11.4 (13:40) -4.1 (-00:0) 3.6 8.89 (11:30) 5 (15:20) 0 0 0 0 0
12-05-2018 13.3 (16:40) 2.5 (00:00) 7.9 14.72 (13:40) 8.89 (13:40) 0 0 0 0 0
11-05-2018 19.7 (18:00) 0.8 (06:30) 10.3 10 (14:20) 5.28 (19:40) 0 0 0 0 0
10-05-2018 18.3 (17:10) 1.8 (00:00) 10 8.33 (03:30) 4.17 (20:10) 0 0 0 0 0
09-05-2018 20.2 (17:40) 2.4 (00:00) 11.3 7.78 (22:30) 5.28 (22:30) 0 0 0 0 0
08-05-2018 21.8 (14:10) 6.4 (00:00) 14.1 10.28 (17:40) 7.5 (17:40) 0 0 0 0 0
07-05-2018 23.5 (18:00) 9.3 (00:00) 16.4 11.39 (16:30) 6.39 (19:10) 0.6 0 0 0.6 0
06-05-2018 22.8 (17:40) 8.4 (00:00) 15.6 7.78 (03:30) 5.28 (05:20) 0 0 0 0 0
05-05-2018 20.8 (15:10) 0.2 (00:00) 10.5 14.17 (16:00) 8.61 (16:10) 0 0 0 0 0
04-05-2018 17.6 (17:40) -3.2 (-00:0) 7.2 9.17 (19:10) 5.83 (18:50) 0 0 0 0 0
03-05-2018 13.6 (17:10) 3.1 (00:00) 8.4 10.83 (18:30) 7.5 (18:00) 0 0 0 0 0
02-05-2018 13.6 (17:50) 5.5 (00:00) 9.6 7.22 (10:20) 3.89 (10:40) 0 0 0 0 0
01-05-2018 12 (18:10) -4.5 (07:10) 3.8 7.78 (18:00) 4.17 (19:20) 0 0 0 0 0
30-04-2018 8.7 (18:00) -0.5 (-00:0) 4.1 9.72 (18:20) 6.11 (18:10) 2.4 0 0.6 1.8 0
29-04-2018 8.4 (18:00) -0.6 (-00:0) 3.9 12.22 (18:20) 6.39 (18:20) 2.6 0.2 0 2.2 0.2
28-04-2018 11.4 (15:40) 3.9 (00:00) 7.6 8.89 (15:40) 5.83 (15:40) 2.6 0 0 2.4 0.2

Gráficas

Temp. máximas Temp. mínimas Temp. medias Precipitaciones Rachas de viento máximas Velocidades máximas media en intervalos de 10 minutos

Datos horarios

Fecha y hora oficial Temperatura (ºC) Velocidad del viento (km/h) Dirección del viento Racha (km/h) Dirección de racha Precipitación (mm) Presión (hPa) Tendencia (hPa) Humedad (%)
2018-05-27 23:00:00 -- -- -- -- -- -- -- -- --
2018-05-27 22:00:00 -- -- -- -- -- -- -- -- --
2018-05-27 21:00:00 -- -- -- -- -- -- -- -- --
2018-05-27 20:00:00 19.1 8 Norte 20 Norte 0 -- -- 55
2018-05-27 19:00:00 18.9 14 Norte 26 Noroeste 0 -- -- 54
2018-05-27 18:00:00 17 10 Noroeste 23 Norte 1.6 -- -- 64
2018-05-27 17:00:00 19.7 12 Noroeste 23 Oeste 0 -- -- 52
2018-05-27 16:00:00 19.7 14 Oeste 23 Oeste 0 -- -- 55
2018-05-27 15:00:00 19.3 13 Sudoeste 24 Oeste 0 -- -- 55
2018-05-27 14:00:00 18.6 9 Sudoeste 22 Sudoeste 0 -- -- 62
2018-05-27 13:00:00 16.6 10 Sudoeste 21 Sudoeste 0 -- -- 68
2018-05-27 12:00:00 16.6 8 Sudoeste 17 Sudoeste 0 -- -- 68
2018-05-27 11:00:00 14.9 6 Oeste 11 Oeste 0 -- -- 77
2018-05-27 10:00:00 12 3 Norte 6 Nordeste 0 -- -- 89
2018-05-27 09:00:00 9.5 3 Este 8 Nordeste 0 -- -- 95
2018-05-27 08:00:00 7.9 4 Nordeste 13 Nordeste 0 -- -- 97
2018-05-27 07:00:00 6.6 4 Este 10 Nordeste 0 -- -- 96
2018-05-27 06:00:00 6.2 4 Nordeste 6 Nordeste 0 -- -- 96
2018-05-27 05:00:00 6.3 2 Nordeste 6 Nordeste 0 -- -- 97
2018-05-27 04:00:00 6.1 5 Nordeste 6 Nordeste 0 -- -- 96
2018-05-27 03:00:00 6.8 3 Este 7 Nordeste 0 -- -- 93
2018-05-27 02:00:00 8.3 4 Nordeste 6 Nordeste 0 -- -- 93
2018-05-27 01:00:00 9.1 5 Nordeste 13 Nordeste 0 -- -- 93
2018-05-27 00:00:00 9.6 5 Nordeste 9 Nordeste 0 -- -- 92
2018-05-26 23:00:00 9.8 5 Nordeste 7 Sudeste 0 -- -- 88
2018-05-26 22:00:00 12 6 Sudeste 8 Sudeste 0 -- -- 82
2018-05-26 21:00:00 14.3 0 Calma 5 Nordeste 0 -- -- 82
2018-05-26 20:00:00 14.2 5 Norte 9 Nordeste 0 -- -- 75
2018-05-26 19:00:00 13.9 0 Calma 8 Nordeste 0 -- -- 70
2018-05-26 18:00:00 12.4 3 Norte 31 Noroeste 0.4 -- -- 82
2018-05-26 17:00:00 14.5 16 Oeste 31 Noroeste 0 -- -- 71
2018-05-26 16:00:00 16 11 Oeste 18 Sudoeste 0 -- -- 68
2018-05-26 15:00:00 13.8 8 Sudoeste 15 Sudoeste 0 -- -- 80
2018-05-26 14:00:00 14.2 8 Sur 15 Oeste 0 -- -- 79
2018-05-26 13:00:00 14 6 Oeste 14 Oeste 0 -- -- 79
2018-05-26 12:00:00 12 3 Oeste 19 Sudoeste 0.2 -- -- 89
2018-05-26 11:00:00 12.1 5 Sur 13 Sur 0 -- -- 88
2018-05-26 10:00:00 11.8 2 Este 9 Oeste 0 -- -- 90
2018-05-26 09:00:00 10.9 3 Noroeste 5 Norte 2 -- -- 97
2018-05-26 08:00:00 10.6 3 Sudeste 6 Sudeste 2.2 -- -- 97
2018-05-26 07:00:00 10.5 0 Calma 5 Oeste 3.6 -- -- 97
2018-05-26 06:00:00 10.4 3 Nordeste 6 Sudeste 0 -- -- 97
2018-05-26 05:00:00 10.1 0 Calma 4 Nordeste 0.8 -- -- 96
2018-05-26 04:00:00 10 2 Este 5 Este 0 -- -- 96
2018-05-26 03:00:00 9.9 2 Norte 4 Nordeste 0 -- -- 96
2018-05-26 02:00:00 9.6 0 Calma 5 Este 0 -- -- 96
2018-05-26 01:00:00 10 0 Calma 3 Este 0 -- -- 94
2018-05-26 00:00:00 10 3 Sudeste 6 Este 0 -- -- 94
2018-05-25 23:00:00 10.7 5 Este 6 Sudeste 0 -- -- 92
2018-05-25 22:00:00 12.5 0 Calma 8 Nordeste 0 -- -- 90
2018-05-25 21:00:00 12.8 4 Nordeste 15 Este 0.2 -- -- 87
2018-05-25 20:00:00 13 10 Este 17 Este 0 -- -- 86
2018-05-25 19:00:00 13.6 10 Este 20 Este 0 -- -- 86
2018-05-25 18:00:00 14 10 Este 18 Sudeste 0.2 -- -- 82
2018-05-25 17:00:00 15.2 8 Sudeste 16 Este 0 -- -- 74
2018-05-25 16:00:00 14.7 10 Este 15 Este 0 -- -- 77
2018-05-25 15:00:00 14.1 9 Este 20 Nordeste 0 -- -- 80
2018-05-25 14:00:00 13.7 10 Este 19 Sudeste 0.2 -- -- 82
2018-05-25 13:00:00 12.8 8 Este 17 Este 1.2 -- -- 90
2018-05-25 12:00:00 12.7 11 Sudeste 32 Sudeste 0 -- -- 87
2018-05-25 11:00:00 12.7 15 Sudeste 29 Sudeste 0 -- -- 86
2018-05-25 10:00:00 12.6 7 Este 17 Este 0 -- -- 85
2018-05-25 09:00:00 12 5 Nordeste 11 Nordeste 0 -- -- 89
2018-05-25 08:00:00 11.1 2 Este 12 Nordeste 0 -- -- 91
2018-05-25 07:00:00 10.8 10 Nordeste 20 Nordeste 0 -- -- 89
2018-05-25 06:00:00 10.9 10 Nordeste 17 Norte 0 -- -- 92
2018-05-25 05:00:00 11.6 5 Este 22 Norte 0 -- -- 91
2018-05-25 04:00:00 12.1 10 Este 13 Este 0 -- -- 92
2018-05-25 03:00:00 12.3 9 Nordeste 19 Norte 0.6 -- -- 92
2018-05-25 02:00:00 12.5 5 Norte 17 Noroeste 1.6 -- -- 92
2018-05-25 01:00:00 12.7 5 Nordeste 23 Sudeste 9.8 -- -- 90
2018-05-25 00:00:00 15.1 9 Sudeste 22 Nordeste 0.2 -- -- 76
2018-05-24 23:00:00 16.2 10 Nordeste 35 Este 0 -- -- 72
2018-05-24 22:00:00 17.2 21 Este 33 Este 0 -- -- 68
2018-05-24 21:00:00 18.9 12 Nordeste 19 Este 0 -- -- 61
2018-05-24 20:00:00 19.2 5 Norte 11 Norte 0 -- -- 62
2018-05-24 19:00:00 18.9 8 Oeste 23 Oeste 0 -- -- 62
2018-05-24 18:00:00 19.9 11 Oeste 19 Sudoeste 0 -- -- 57
2018-05-24 17:00:00 20.7 10 Sudoeste 22 Sudoeste 0 -- -- 49
2018-05-24 16:00:00 22.3 9 Sur 22 Sudoeste 0 -- -- 45
2018-05-24 15:00:00 21.5 9 Sudoeste 26 Sur 0 -- -- 42
2018-05-24 14:00:00 21 7 Noroeste 14 Sudoeste 0 -- -- 49
2018-05-24 13:00:00 19.9 3 Nordeste 14 Este 0 -- -- 54
2018-05-24 12:00:00 18.4 5 Nordeste 11 Noroeste 0 -- -- 63
2018-05-24 11:00:00 16.8 4 Nordeste 9 Noroeste 0 -- -- 68
2018-05-24 10:00:00 14.5 4 Norte 8 Nordeste 0 -- -- 82
2018-05-24 09:00:00 11.4 5 Nordeste 15 Nordeste 0 -- -- 89
2018-05-24 08:00:00 8.2 3 Nordeste 7 Nordeste 0 -- -- 97
2018-05-24 07:00:00 5.9 5 Nordeste 6 Nordeste 0 -- -- 95
2018-05-24 06:00:00 7.3 4 Nordeste 8 Nordeste 0 -- -- 95
2018-05-24 05:00:00 7.3 5 Este 8 Nordeste 0 -- -- 94
2018-05-24 04:00:00 8.6 2 Norte 9 Sudeste 0 -- -- 90
2018-05-24 03:00:00 10.1 5 Sudeste 9 Norte 0 -- -- 90
2018-05-24 02:00:00 11.7 8 Nordeste 15 Nordeste 0 -- -- 90
2018-05-24 01:00:00 12.3 8 Nordeste 16 Este 0 -- -- 89
2018-05-24 00:00:00 13.1 10 Este 26 Sudeste 0 -- -- 85
2018-05-23 23:00:00 13.5 14 Este 30 Este 0 -- -- 82
2018-05-23 22:00:00 14.1 5 Sudeste 30 Este 0 -- -- 82
2018-05-23 21:00:00 15.2 12 Nordeste 28 Este 1 -- -- 75
2018-05-23 20:00:00 16.8 15 Este 23 Este 0.4 -- -- 71
2018-05-23 19:00:00 18.7 18 Norte 32 Norte 0 -- -- 55
2018-05-23 18:00:00 22.4 7 Oeste 20 Oeste 0 -- -- 40
2018-05-23 17:00:00 22 10 Sudoeste 21 Oeste 0 -- -- 41
2018-05-23 16:00:00 22 12 Sudoeste 25 Oeste 0 -- -- 45
2018-05-23 15:00:00 21.3 12 Sudoeste 24 Oeste 0 -- -- 48
2018-05-23 14:00:00 20.7 6 Sudoeste 17 Sudoeste 0 -- -- 50
2018-05-23 13:00:00 19.3 6 Sur 17 Sur 0 -- -- 51
2018-05-23 12:00:00 18.5 5 Oeste 12 Este 0 -- -- 51
2018-05-23 11:00:00 16.5 6 Sudeste 15 Sudeste 0 -- -- 55
2018-05-23 10:00:00 16 8 Sudeste 15 Sudeste 0 -- -- 55
2018-05-23 09:00:00 12.7 0 Calma 6 Norte 0 -- -- 78
2018-05-23 08:00:00 11.5 0 Calma 4 Este 0 -- -- 77
2018-05-23 07:00:00 11.2 0 Calma 4 Noroeste 0 -- -- 74
2018-05-23 06:00:00 11.2 0 Calma 6 Nordeste 0 -- -- 74
2018-05-23 05:00:00 13.1 3 Norte 14 Nordeste 0 -- -- 67
2018-05-23 04:00:00 12.7 7 Nordeste 17 Nordeste 0 -- -- 62
2018-05-23 03:00:00 12.9 12 Nordeste 24 Este 0 -- -- 63
2018-05-23 02:00:00 13.6 13 Este 21 Este 0 -- -- 58
2018-05-23 01:00:00 13.4 6 Nordeste 15 Nordeste 0 -- -- 57
2018-05-23 00:00:00 15 8 Este 21 Este 0 -- -- 53
2018-05-22 23:00:00 15.4 10 Este 15 Este 0 -- -- 50
2018-05-22 22:00:00 18.1 8 Este 29 Este 0 -- -- 45
2018-05-22 21:00:00 20.1 8 Este 21 Nordeste 0 -- -- 41
2018-05-22 20:00:00 22.9 3 Noroeste 16 Sudoeste 0 -- -- 26
2018-05-22 19:00:00 24 8 Sudoeste 20 Oeste 0 -- -- 27
2018-05-22 18:00:00 24.1 8 Sudoeste 24 Sudoeste 0 -- -- 25
2018-05-22 17:00:00 23.3 14 Sudoeste 22 Sudoeste 0 -- -- 27
2018-05-22 16:00:00 22.4 9 Sudoeste 24 Oeste 0 -- -- 37
2018-05-22 15:00:00 21.6 11 Oeste 23 Oeste 0 -- -- 43
2018-05-22 14:00:00 20 11 Sudoeste 19 Sudoeste 0 -- -- 46
2018-05-22 13:00:00 19.3 4 Sudoeste 19 Sudoeste 0 -- -- 52
2018-05-22 12:00:00 19.1 7 Sur 19 Sudeste 0 -- -- 54
2018-05-22 11:00:00 17.7 5 Sudeste 17 Este 0 -- -- 58
2018-05-22 10:00:00 15.8 7 Sudeste 16 Sudeste 0 -- -- 66
2018-05-22 09:00:00 11.7 5 Nordeste 8 Nordeste 0 -- -- 77
2018-05-22 08:00:00 8.7 3 Nordeste 5 Norte 0 -- -- 88
2018-05-22 07:00:00 7.4 0 Calma 8 Nordeste 0 -- -- 87
2018-05-22 06:00:00 8.4 3 Este 11 Nordeste 0 -- -- 82
2018-05-22 05:00:00 10.9 9 Nordeste 14 Este 0 -- -- 81
2018-05-22 04:00:00 11.7 9 Este 13 Este 0 -- -- 81
2018-05-22 03:00:00 11.8 8 Nordeste 10 Este 0 -- -- 80
2018-05-22 02:00:00 13.3 5 Este 10 Nordeste 0 -- -- 76
2018-05-22 01:00:00 13.8 5 Nordeste 18 Este 0 -- -- 76
2018-05-22 00:00:00 14.1 10 Este 22 Este 0 -- -- 75
2018-05-21 23:00:00 15.7 14 Este 24 Este 0 -- -- 65
2018-05-21 22:00:00 16.7 8 Nordeste 14 Nordeste 0 -- -- 53
2018-05-21 21:00:00 17.6 10 Nordeste 20 Nordeste 0 -- -- 47
2018-05-21 20:00:00 19.2 10 Norte 21 Norte 0 -- -- 41
2018-05-21 19:00:00 19.4 13 Norte 22 Norte 0 -- -- 44
2018-05-21 18:00:00 19.1 16 Norte 23 Norte 0 -- -- 44
2018-05-21 17:00:00 18.6 13 Norte 32 Nordeste 0 -- -- 47
2018-05-21 16:00:00 19.1 17 Nordeste 42 Norte 0 -- -- 47
2018-05-21 15:00:00 19.8 26 Norte 39 Norte 0 -- -- 43
2018-05-21 14:00:00 20.5 14 Sudoeste 33 Sudoeste 0 -- -- 46
2018-05-21 13:00:00 19.2 12 Sudoeste 22 Sur 0 -- -- 50
2018-05-21 12:00:00 18.1 9 Sudoeste 16 Oeste 0 -- -- 54
2018-05-21 11:00:00 16.8 4 Sur 12 Sudoeste 0 -- -- 57
2018-05-21 10:00:00 14.8 3 Sudoeste 9 Sur 0 -- -- 65
2018-05-21 09:00:00 10.9 4 Norte 7 Nordeste 0 -- -- 77
2018-05-21 08:00:00 7.5 3 Nordeste 8 Nordeste 0 -- -- 87
2018-05-21 07:00:00 4.5 2 Este 5 Nordeste 0 -- -- 89
2018-05-21 06:00:00 5.6 3 Este 8 Nordeste 0 -- -- 86
2018-05-21 05:00:00 6.9 6 Nordeste 8 Nordeste 0 -- -- 83
2018-05-21 04:00:00 8.5 3 Nordeste 9 Este 0 -- -- 80
2018-05-21 03:00:00 9.5 4 Nordeste 13 Nordeste 0 -- -- 74
2018-05-21 02:00:00 11.6 9 Nordeste 17 Este 0 -- -- 71
2018-05-21 01:00:00 12.1 10 Este 21 Sudeste 0 -- -- 69
2018-05-21 00:00:00 13.2 14 Este 23 Este 0 -- -- 64
2018-05-20 23:00:00 14.1 12 Este 19 Este 0 -- -- 58
2018-05-20 22:00:00 14.9 8 Este 17 Este 0 -- -- 40
2018-05-20 21:00:00 19.9 8 Sur 20 Sudeste 0 -- -- 27
2018-05-20 20:00:00 21.2 10 Sur 22 Sur 0 -- -- 23
2018-05-20 19:00:00 21.5 12 Sur 31 Sudeste 0 -- -- 24
2018-05-20 18:00:00 21.8 17 Sur 32 Sudeste 0 -- -- 23
2018-05-20 17:00:00 22.2 14 Sudeste 44 Sudeste 0 -- -- 24
2018-05-20 16:00:00 21.6 14 Sudeste 32 Sudeste 0 -- -- 20
2018-05-20 15:00:00 20.9 13 Sur 29 Sudeste 0 -- -- 25
2018-05-20 14:00:00 20 9 Sudeste 23 Sudeste 0 -- -- 26
2018-05-20 13:00:00 18.6 8 Nordeste 18 Este 0 -- -- 31
2018-05-20 12:00:00 17.3 6 Este 18 Este 0 -- -- 37
2018-05-20 11:00:00 15.3 4 Nordeste 9 Norte 0 -- -- 50
2018-05-20 10:00:00 12.9 4 Este 9 Nordeste 0 -- -- 64
2018-05-20 09:00:00 8 5 Nordeste 9 Nordeste 0 -- -- 84
2018-05-20 08:00:00 5.1 5 Nordeste 9 Nordeste 0 -- -- 93
2018-05-20 07:00:00 4.1 5 Nordeste 13 Norte 0 -- -- 93
2018-05-20 06:00:00 3.4 4 Nordeste 8 Nordeste 0 -- -- 94
2018-05-20 05:00:00 3.9 5 Nordeste 6 Nordeste 0 -- -- 93
2018-05-20 04:00:00 5.1 3 Nordeste 8 Nordeste 0 -- -- 89
2018-05-20 03:00:00 7.1 4 Norte 11 Nordeste 0 -- -- 86
2018-05-20 02:00:00 7.3 2 Nordeste 9 Este 0 -- -- 88
2018-05-20 01:00:00 7 3 Este 9 Este 0 -- -- 85
2018-05-20 00:00:00 9 4 Este 10 Este 0 -- -- 82
2018-05-19 23:00:00 12 7 Nordeste 14 Este 0 -- -- 76
2018-05-19 22:00:00 14.4 6 Nordeste 15 Este 0 -- -- 69
2018-05-19 21:00:00 17.7 8 Nordeste 17 Nordeste 0 -- -- 59
2018-05-19 20:00:00 16.9 4 Norte 9 Norte 0 -- -- 68
2018-05-19 19:00:00 16.7 4 Nordeste 22 Este 0.2 -- -- 66
2018-05-19 18:00:00 18 19 Este 36 Este 0 -- -- 53
2018-05-19 17:00:00 20.8 21 Sudeste 35 Sudeste 0 -- -- 47
2018-05-19 16:00:00 20.8 6 Sur 24 Sur 0 -- -- 39
2018-05-19 15:00:00 21.1 6 Sudoeste 17 Sur 0 -- -- 40
2018-05-19 14:00:00 20.7 6 Sudoeste 22 Sudeste 0 -- -- 42
2018-05-19 13:00:00 19.5 8 Nordeste 21 Este 0 -- -- 44
2018-05-19 12:00:00 18.2 7 Nordeste 28 Sudeste 0 -- -- 49
2018-05-19 11:00:00 17.4 10 Este 23 Este 0 -- -- 53
2018-05-19 10:00:00 15.8 15 Este 26 Este 0 -- -- 60
2018-05-19 09:00:00 11 7 Nordeste 15 Nordeste 0 -- -- 72
2018-05-19 08:00:00 7.4 12 Nordeste 17 Nordeste 0 -- -- 85
2018-05-19 07:00:00 5.4 6 Nordeste 12 Norte 0 -- -- 89
2018-05-19 06:00:00 6.4 6 Nordeste 9 Nordeste 0 -- -- 86
2018-05-19 05:00:00 6.1 7 Este 11 Nordeste 0 -- -- 85
2018-05-19 04:00:00 7.7 5 Nordeste 10 Este 0 -- -- 84
2018-05-19 03:00:00 9.2 3 Nordeste 8 Este 0 -- -- 82
2018-05-19 02:00:00 9.1 8 Nordeste 20 Este 0 -- -- 82
2018-05-19 01:00:00 11.3 15 Este 22 Este 0 -- -- 75
2018-05-19 00:00:00 12.1 6 Nordeste 25 Sudeste 0 -- -- 72
2018-05-18 23:00:00 13.4 17 Este 31 Sudeste 0 -- -- 68
2018-05-18 22:00:00 14.6 14 Este 21 Este 0 -- -- 64
2018-05-18 21:00:00 17 11 Este 24 Sudeste 0 -- -- 56
2018-05-18 20:00:00 18.3 10 Este 28 Este 0 -- -- 50
2018-05-18 19:00:00 19.6 14 Este 33 Este 0 -- -- 48
2018-05-18 18:00:00 19.8 21 Este 38 Sudeste 0 -- -- 46
2018-05-18 17:00:00 20.6 17 Sudeste 35 Sudeste 0 -- -- 45
2018-05-18 16:00:00 19.8 17 Sudeste 37 Sudeste 0 -- -- 45
2018-05-18 15:00:00 20.4 21 Este 34 Sudeste 0 -- -- 47
2018-05-18 14:00:00 19.6 20 Este 37 Este 0 -- -- 49
2018-05-18 13:00:00 18.4 22 Este 36 Sudeste 0 -- -- 48
2018-05-18 12:00:00 18 18 Este 27 Este 0 -- -- 52
2018-05-18 11:00:00 15.8 15 Este 26 Este 0 -- -- 60
2018-05-18 10:00:00 13.5 18 Este 26 Este 0 -- -- 65
2018-05-18 09:00:00 10.3 7 Norte 18 Nordeste 0 -- -- 78
2018-05-18 08:00:00 6.2 3 Este 8 Oeste 0 -- -- 93
2018-05-18 07:00:00 4.9 3 Sudeste 9 Este 0 -- -- 88
2018-05-18 06:00:00 6.6 0 Calma 8 Sur 0 -- -- 84
2018-05-18 05:00:00 7.6 4 Este 7 Nordeste 0 -- -- 83
2018-05-18 04:00:00 9 5 Este 12 Nordeste 0 -- -- 82
2018-05-18 03:00:00 9.5 5 Nordeste 12 Norte 0 -- -- 78
2018-05-18 02:00:00 8.3 7 Este 8 Este 0 -- -- 80
2018-05-18 01:00:00 10.7 4 Nordeste 11 Sudeste 0 -- -- 71
2018-05-18 00:00:00 12.2 7 Este 14 Sudeste 0 -- -- 67
2018-05-17 23:00:00 12.8 9 Sudeste 21 Este 0 -- -- 64
2018-05-17 22:00:00 13.1 9 Este 18 Este 0 -- -- 64
2018-05-17 21:00:00 13.6 2 Sur 14 Noroeste 0 -- -- 60
2018-05-17 20:00:00 13.6 6 Noroeste 21 Oeste 0 -- -- 60
2018-05-17 19:00:00 13.2 14 Oeste 32 Oeste 0 -- -- 64
2018-05-17 18:00:00 16.3 16 Norte 31 Norte 0 -- -- 55
2018-05-17 17:00:00 19.4 12 Este 32 Sudeste 0 -- -- 41
2018-05-17 16:00:00 22.1 11 Sur 32 Sudeste 0 -- -- 32
2018-05-17 15:00:00 21.3 13 Sudeste 35 Sudeste 0 -- -- 35
2018-05-17 14:00:00 20.6 13 Sudeste 30 Sudeste 0 -- -- 36
2018-05-17 13:00:00 19.7 9 Este 20 Nordeste 0 -- -- 38
2018-05-17 12:00:00 18.5 9 Nordeste 26 Este 0 -- -- 40
2018-05-17 11:00:00 17 11 Este 27 Este 0 -- -- 47
2018-05-17 10:00:00 13.5 7 Norte 15 Nordeste 0 -- -- 59
2018-05-17 09:00:00 9.7 5 Norte 11 Nordeste 0 -- -- 74
2018-05-17 08:00:00 6.3 7 Nordeste 13 Nordeste 0 -- -- 83
2018-05-17 07:00:00 4.6 8 Este 13 Nordeste 0 -- -- 86
2018-05-17 06:00:00 4.9 8 Nordeste 13 Nordeste 0 -- -- 87
2018-05-17 05:00:00 5.9 11 Nordeste 14 Nordeste 0 -- -- 86
2018-05-17 04:00:00 6.9 8 Nordeste 18 Nordeste 0 -- -- 81
2018-05-17 03:00:00 8.4 11 Este 17 Este 0 -- -- 76
2018-05-17 02:00:00 8.1 7 Este 17 Este 0 -- -- 78
2018-05-17 01:00:00 9.8 9 Este 12 Este 0 -- -- 75
2018-05-17 00:00:00 11.2 5 Este 14 Este 0 -- -- 69
2018-05-16 23:00:00 12.8 6 Este 22 Este 0 -- -- 64
2018-05-16 22:00:00 14.7 10 Este 25 Este 0 -- -- 58
2018-05-16 21:00:00 17.7 16 Sudeste 29 Sudeste 0 -- -- 49
2018-05-16 20:00:00 19.5 15 Este 36 Sudeste 0 -- -- 44
2018-05-16 19:00:00 20.2 18 Este 36 Sudeste 0 -- -- 42
2018-05-16 18:00:00 21 19 Sudeste 36 Sudeste 0 -- -- 38
2018-05-16 17:00:00 20.9 21 Sur 40 Sudeste 0 -- -- 38
2018-05-16 16:00:00 21.4 18 Sudeste 41 Sudeste 0 -- -- 37
2018-05-16 15:00:00 20.2 15 Sudeste 36 Sudeste 0 -- -- 42
2018-05-16 14:00:00 20 11 Este 27 Sudeste 0 -- -- 40
2018-05-16 13:00:00 18.1 7 Noroeste 17 Oeste 0 -- -- 40
2018-05-16 12:00:00 16 6 Oeste 14 Oeste 0 -- -- 41
2018-05-16 11:00:00 13.6 8 Oeste 14 Oeste 0 -- -- 52
2018-05-16 10:00:00 10.6 5 Sudoeste 11 Oeste 0 -- -- 57
2018-05-16 09:00:00 7.7 3 Noroeste 8 Este 0 -- -- 69
2018-05-16 08:00:00 3.9 3 Este 5 Este 0 -- -- 79
2018-05-16 07:00:00 -0.1 3 Este 6 Este 0 -- -- 87
2018-05-16 06:00:00 0.2 3 Este 5 Nordeste 0 -- -- 86
2018-05-16 05:00:00 0.5 2 Este 6 Este 0 -- -- 83
2018-05-16 04:00:00 1.5 0 Calma 4 Este 0 -- -- 82
2018-05-16 03:00:00 3.2 2 Sudoeste 5 Este 0 -- -- 78
2018-05-16 02:00:00 4.6 3 Este 8 Este 0 -- -- 74
2018-05-16 01:00:00 5.8 3 Este 10 Este 0 -- -- 72
2018-05-16 00:00:00 8.9 5 Este 12 Nordeste 0 -- -- 64
2018-05-15 23:00:00 10.2 8 Este 14 Este 0 -- -- 62
2018-05-15 22:00:00 12.9 12 Este 25 Este 0 -- -- 53
2018-05-15 21:00:00 16.1 18 Sudeste 30 Sudeste 0 -- -- 45
2018-05-15 20:00:00 17.6 15 Sudeste 26 Sudeste 0 -- -- 43
2018-05-15 19:00:00 19.1 17 Sudeste 26 Sudeste 0 -- -- 39
2018-05-15 18:00:00 20.8 11 Este 18 Sudoeste 0 -- -- 34
2018-05-15 17:00:00 20.6 9 Oeste 27 Oeste 0 -- -- 35
2018-05-15 16:00:00 19.6 9 Oeste 23 Oeste 0 -- -- 35
2018-05-15 15:00:00 18.3 11 Sudoeste 21 Sur 0 -- -- 34
2018-05-15 14:00:00 17.2 10 Sudoeste 22 Sudoeste 0 -- -- 36
2018-05-15 13:00:00 15.6 8 Sudoeste 19 Sudoeste 0 -- -- 39
2018-05-15 12:00:00 14.5 8 Oeste 16 Sudoeste 0 -- -- 36
2018-05-15 11:00:00 11.4 4 Nordeste 10 Oeste 0 -- -- 46
2018-05-15 10:00:00 8.1 3 Noroeste 7 Noroeste 0 -- -- 65
2018-05-15 09:00:00 4.6 0 Calma 4 Noroeste 0 -- -- 82
2018-05-15 08:00:00 0.5 2 Este 4 Este 0 -- -- 89
2018-05-15 07:00:00 -1.6 0 Calma 3 Noroeste 0 -- -- 91
2018-05-15 06:00:00 -1.5 0 Calma 2 Oeste 0 -- -- 88
2018-05-15 05:00:00 -0.7 0 Calma 5 Sur 0 -- -- 85
2018-05-15 04:00:00 1.8 3 Sur 10 Sudoeste 0 -- -- 81
2018-05-15 03:00:00 2 6 Sur 8 Sudeste 0 -- -- 74
2018-05-15 02:00:00 3.7 5 Sudeste 9 Este 0 -- -- 64
2018-05-15 01:00:00 7.6 9 Nordeste 18 Norte 0 -- -- 52
2018-05-15 00:00:00 7.2 8 Norte 13 Norte 0 -- -- 57
2018-05-14 23:00:00 8.2 6 Norte 14 Norte 0 -- -- 55
2018-05-14 22:00:00 9.9 10 Norte 23 Norte 0 -- -- 49
2018-05-14 21:00:00 12.7 17 Norte 34 Norte 0 -- -- 45
2018-05-14 20:00:00 15.1 18 Norte 28 Norte 0 -- -- 40
2018-05-14 19:00:00 15.4 14 Nordeste 28 Noroeste 0 -- -- 38
2018-05-14 18:00:00 15.3 14 Nordeste 22 Norte 0 -- -- 37
2018-05-14 17:00:00 15.4 16 Norte 27 Norte 0 -- -- 39
2018-05-14 16:00:00 14.6 16 Norte 30 Nordeste 0 -- -- 40
2018-05-14 15:00:00 14 17 Nordeste 32 Norte 0 -- -- 47
2018-05-14 14:00:00 13.5 16 Norte 26 Norte 0 -- -- 55
2018-05-14 13:00:00 11 4 Sur 18 Noroeste 0.2 -- -- 78
2018-05-14 12:00:00 10.8 9 Noroeste 18 Oeste 0 -- -- 76
2018-05-14 11:00:00 9.6 4 Norte 8 Norte 0.2 -- -- 79
2018-05-14 10:00:00 7 3 Nordeste 9 Nordeste 0.2 -- -- 93
2018-05-14 09:00:00 5.7 6 Nordeste 19 Este 0.2 -- -- 93
2018-05-14 08:00:00 5.5 6 Este 10 Este 0.6 -- -- 94
2018-05-14 07:00:00 5.5 5 Este 11 Este 0.4 -- -- 95
2018-05-14 06:00:00 5.6 4 Este 6 Nordeste 0.6 -- -- 96
2018-05-14 05:00:00 5.5 0 Calma 3 Norte 0.8 -- -- 94
2018-05-14 04:00:00 5.7 0 Calma 0 Calma 0.2 -- -- 92
2018-05-14 03:00:00 5.4 0 Calma 4 Sur 0.2 -- -- 91
2018-05-14 02:00:00 5.4 2 Sudeste 4 Sudeste 0.2 -- -- 87
2018-05-14 01:00:00 5.7 0 Calma 4 Este 0 -- -- 83
2018-05-11 20:00:00 -- -- -- -- -- -- -- -- --
2018-05-11 19:00:00 -- -- -- -- -- -- -- -- --
2018-05-11 18:00:00 -- -- -- -- -- -- -- -- --
2018-05-11 17:00:00 -- -- -- -- -- -- -- -- --
2018-05-11 16:00:00 17.4 2 Sur 26 Oeste 0 -- -- 51
2018-05-11 15:00:00 17.6 15 Oeste 36 Sudoeste 0 -- -- 52
2018-05-11 14:00:00 17.9 15 Sudoeste 32 Sudoeste 0 -- -- 50
2018-05-11 13:00:00 16.5 13 Sur 20 Sudoeste 0 -- -- 50
2018-05-11 12:00:00 16.2 6 Sudoeste 14 Sudoeste 0 -- -- 46
2018-05-11 11:00:00 14.3 4 Nordeste 8 Nordeste 0 -- -- 48
2018-05-11 10:00:00 11.4 3 Nordeste 10 Nordeste 0 -- -- 61
2018-05-11 09:00:00 6.7 4 Nordeste 9 Nordeste 0 -- -- 78
2018-05-11 08:00:00 4.2 4 Nordeste 6 Este 0 -- -- 86
2018-05-11 07:00:00 1.2 4 Nordeste 9 Este 0 -- -- 87
2018-05-11 06:00:00 1.5 2 Este 7 Este 0 -- -- 85
2018-05-11 05:00:00 1.8 7 Nordeste 10 Nordeste 0 -- -- 87
2018-05-11 04:00:00 1.9 4 Nordeste 8 Nordeste 0 -- -- 85
2018-05-11 03:00:00 2.6 4 Este 8 Este 0 -- -- 80
2018-05-11 02:00:00 3.4 7 Este 9 Este 0 -- -- 81
2018-05-11 01:00:00 4.4 5 Este 7 Este 0 -- -- 78
2018-05-11 00:00:00 6.7 4 Este 9 Nordeste 0 -- -- 67
2018-05-10 23:00:00 9.6 2 Nordeste 14 Sudeste 0 -- -- 59
2018-05-10 22:00:00 11.3 9 Sudeste 17 Sudeste 0 -- -- 55
2018-05-10 21:00:00 14.6 12 Sudeste 27 Sudeste 0 -- -- 51
2018-05-10 20:00:00 17 11 Sur 23 Sudeste 0 -- -- 48
2018-05-10 19:00:00 17.8 10 Sur 20 Sudeste 0 -- -- 45
2018-05-10 18:00:00 17.9 10 Sur 26 Sur 0 -- -- 45
2018-05-10 17:00:00 18.1 11 Sur 23 Sudoeste 0 -- -- 44
2018-05-10 16:00:00 17.8 8 Oeste 23 Sudeste 0 -- -- 43
2018-05-10 15:00:00 17 9 Sur 24 Sur 0 -- -- 46
2018-05-10 14:00:00 15.9 9 Sur 20 Sur 0 -- -- 48
2018-05-10 13:00:00 15.2 7 Sur 22 Sur 0 -- -- 52
2018-05-10 12:00:00 13.8 6 Este 14 Sudeste 0 -- -- 49
2018-05-10 11:00:00 10.9 3 Noroeste 9 Sudoeste 0 -- -- 60
2018-05-10 10:00:00 10.5 3 Noroeste 10 Sudoeste 0 -- -- 68
2018-05-10 09:00:00 8.2 6 Sudoeste 10 Sur 0 -- -- 76
2018-05-10 08:00:00 4.9 0 Calma 8 Sur 0 -- -- 82
2018-05-10 07:00:00 1.9 3 Sudeste 6 Sur 0 -- -- 83
2018-05-10 06:00:00 2.8 0 Calma 4 Oeste 0 -- -- 79
2018-05-10 05:00:00 4 3 Este 5 Este 0 -- -- 72
2018-05-10 04:00:00 7.4 5 Nordeste 30 Norte 0 -- -- 61
2018-05-10 03:00:00 7.9 9 Norte 15 Norte 0 -- -- 54
2018-05-10 02:00:00 9 8 Nordeste 16 Norte 0 -- -- 54
2018-05-10 01:00:00 10.2 10 Norte 16 Norte 0 -- -- 61
2018-05-10 00:00:00 11.9 10 Norte 15 Norte 0 -- -- 58
2018-05-09 23:00:00 13.1 10 Nordeste 28 Nordeste 0 -- -- 60
2018-05-09 22:00:00 14.4 11 Norte 27 Noroeste 0 -- -- 65
2018-05-09 21:00:00 15.5 14 Este 25 Norte 0 -- -- 65
2018-05-09 20:00:00 17.7 15 Norte 23 Nordeste 0 -- -- 57
2018-05-09 19:00:00 19.4 12 Sudoeste 23 Sudoeste 0 -- -- 53
2018-05-09 18:00:00 20 11 Sudoeste 26 Sudoeste 0 -- -- 50
2018-05-09 17:00:00 19.3 13 Sudoeste 24 Sudoeste 0 -- -- 51
2018-05-09 16:00:00 19.4 14 Sudoeste 25 Sudoeste 0 -- -- 49
2018-05-09 15:00:00 18.7 13 Sudoeste 23 Sudoeste 0 -- -- 52
2018-05-09 14:00:00 17.4 13 Sudoeste 24 Sudoeste 0 -- -- 59
2018-05-09 13:00:00 16.3 10 Sudoeste 20 Sudoeste 0 -- -- 62
2018-05-09 12:00:00 15.2 9 Sudoeste 19 Sudoeste 0 -- -- 67
2018-05-09 11:00:00 13.9 9 Oeste 16 Oeste 0 -- -- 70
2018-05-09 10:00:00 11.7 3 Nordeste 9 Nordeste 0 -- -- 70
2018-05-09 09:00:00 7.8 2 Norte 8 Nordeste 0 -- -- 83
2018-05-09 08:00:00 4.4 7 Nordeste 10 Nordeste 0 -- -- 93
2018-05-09 07:00:00 3.1 4 Nordeste 9 Nordeste 0 -- -- 93
2018-05-09 06:00:00 2.8 3 Nordeste 4 Este 0 -- -- 90
2018-05-09 05:00:00 3.9 0 Calma 5 Nordeste 0 -- -- 88
2018-05-09 04:00:00 4 5 Este -- -- 0 -- -- 87
2018-05-09 03:00:00 5.4 0 Calma 4 Sudoeste 0 -- -- 79
2018-05-09 02:00:00 7.1 0 Calma 4 Sudeste 0 -- -- 77
2018-05-09 01:00:00 8.8 5 Norte 11 Sudeste 0 -- -- 70
2018-05-09 00:00:00 8.6 9 Este 13 Este 0 -- -- 69
2018-05-08 23:00:00 10.3 6 Sudeste 10 Este 0 -- -- 68
2018-05-08 22:00:00 13.3 5 Este 17 Nordeste 0 -- -- 57
2018-05-08 21:00:00 16.2 14 Nordeste 27 Norte 0 -- -- 50
2018-05-08 20:00:00 18.1 18 Nordeste 28 Nordeste 0 -- -- 45
2018-05-08 19:00:00 18.5 21 Este 29 Este 0 -- -- 66
2018-05-08 18:00:00 19.1 19 Sudeste 37 Sudeste 0 -- -- 61
2018-05-08 17:00:00 20.6 6 Sur 22 Oeste 0 -- -- 52
2018-05-08 16:00:00 18.3 12 Sudoeste 26 Oeste 0 -- -- 62
2018-05-08 15:00:00 19.3 10 Noroeste 20 Sur 0 -- -- 60
2018-05-08 14:00:00 21.7 13 Sur 23 Sudoeste 0 -- -- 51
2018-05-08 13:00:00 21 8 Sur 22 Sudoeste 0 -- -- 54
2018-05-08 12:00:00 19.7 9 Sudoeste 18 Sudoeste 0 -- -- 56
2018-05-08 11:00:00 18.7 8 Sudoeste 13 Sudoeste 0 -- -- 56
2018-05-08 10:00:00 15.8 4 Nordeste 10 Nordeste 0 -- -- 69
2018-05-08 09:00:00 12 4 Nordeste 11 Nordeste 0 -- -- 82
2018-05-08 08:00:00 8.4 4 Nordeste 10 Nordeste 0 -- -- 93
2018-05-08 07:00:00 6.6 5 Nordeste 11 Nordeste 0 -- -- 94
2018-05-08 06:00:00 6.4 5 Nordeste 9 Nordeste 0 -- -- 91
2018-05-08 05:00:00 7.4 4 Nordeste 7 Nordeste 0 -- -- 89
2018-05-08 04:00:00 8.1 4 Este 8 Nordeste 0 -- -- 89
2018-05-08 03:00:00 9.8 4 Nordeste 8 Nordeste 0 -- -- 86
2018-05-08 02:00:00 10.2 6 Este 9 Este 0 -- -- 87
2018-05-08 01:00:00 12.5 6 Este 13 Este 0 -- -- 80
2018-05-08 00:00:00 14.8 10 Este 27 Sudeste 0 -- -- 75
2018-05-07 23:00:00 17.6 21 Sudeste 31 Sudeste 0 -- -- 55
2018-05-07 22:00:00 17.8 9 Este 14 Este 0 -- -- 62
2018-05-07 21:00:00 19 7 Este 21 Nordeste 0 -- -- 57
2018-05-07 20:00:00 20.3 10 Nordeste 33 Nordeste 0 -- -- 49
2018-05-07 19:00:00 21.6 22 Nordeste 35 Nordeste 0 -- -- 49
2018-05-07 18:00:00 23.5 8 Noroeste 14 Noroeste 0 -- -- 41
2018-05-07 17:00:00 18 6 Sudeste 41 Sudeste 0.6 -- -- 74
2018-05-07 16:00:00 22.7 9 Sudoeste 21 Sudoeste 0 -- -- 43
2018-05-07 15:00:00 21.5 7 Sur 14 Sur 0 -- -- 48
2018-05-07 14:00:00 21.4 6 Oeste 13 Oeste 0 -- -- 44
2018-05-07 13:00:00 20.9 6 Sur 15 Sur 0 -- -- 45
2018-05-07 12:00:00 21.4 4 Oeste 15 Oeste 0 -- -- 44
2018-05-07 11:00:00 20.3 3 Nordeste 10 Norte 0 -- -- 46
2018-05-07 10:00:00 17 6 Norte 13 Nordeste 0 -- -- 64
2018-05-07 09:00:00 13.4 8 Nordeste 12 Nordeste 0 -- -- 73
2018-05-07 08:00:00 10.6 8 Nordeste 16 Nordeste 0 -- -- 84
2018-05-07 07:00:00 10.4 14 Nordeste 15 Nordeste 0 -- -- 83
2018-05-07 06:00:00 10 5 Nordeste 8 Nordeste 0 -- -- 87
2018-05-07 05:00:00 10.6 5 Nordeste 14 Nordeste 0 -- -- 85
2018-05-07 04:00:00 12.1 5 Nordeste 13 Norte 0 -- -- 77
2018-05-07 03:00:00 13.2 5 Nordeste 11 Nordeste 0 -- -- 75
2018-05-07 02:00:00 13.6 10 Nordeste 21 Este 0 -- -- 74
2018-05-07 01:00:00 14.8 14 Este 23 Este 0 -- -- 71
2018-05-07 00:00:00 15.1 18 Este 24 Este 0 -- -- 69
2018-05-06 23:00:00 14.6 4 Norte 11 Sudeste 0 -- -- 60
2018-05-06 22:00:00 15.5 6 Sudeste 8 Sudeste 0 -- -- 57
2018-05-06 21:00:00 20.9 5 Sudeste 14 Sur 0 -- -- 42
2018-05-06 20:00:00 22.5 5 Sudoeste 16 Sudoeste 0 -- -- 38
2018-05-06 19:00:00 22.4 9 Sur 23 Sur 0 -- -- 40
2018-05-06 18:00:00 22.6 11 Sudoeste 23 Sur 0 -- -- 41
2018-05-06 17:00:00 22.4 12 Sudoeste 25 Sudoeste 0 -- -- 42
2018-05-06 16:00:00 22 13 Sudoeste 27 Sudoeste 0 -- -- 44
2018-05-06 15:00:00 21.5 13 Sudoeste 24 Sudoeste 0 -- -- 45
2018-05-06 14:00:00 20.6 12 Sudeste 23 Sudeste 0 -- -- 49
2018-05-06 13:00:00 19.5 11 Sudeste 27 Sudeste 0 -- -- 55
2018-05-06 12:00:00 18.5 14 Sudeste 28 Este 0 -- -- 56
2018-05-06 11:00:00 17.4 14 Este 26 Este 0 -- -- 58
2018-05-06 10:00:00 15.6 16 Este 26 Este 0 -- -- 64
2018-05-06 09:00:00 11.4 9 Nordeste 14 Norte 0 -- -- 76
2018-05-06 08:00:00 9.1 10 Nordeste 19 Este 0 -- -- 83
2018-05-06 07:00:00 9.7 14 Este 19 Este 0 -- -- 85
2018-05-06 06:00:00 10.5 15 Este 28 Este 0 -- -- 81
2018-05-06 05:00:00 11.3 17 Este 24 Este 0 -- -- 78
2018-05-06 04:00:00 11.4 16 Este 28 Este 0 -- -- 76
2018-05-06 03:00:00 9.4 10 Este 15 Este 0 -- -- 75
2018-05-06 02:00:00 8.6 14 Nordeste 16 Nordeste 0 -- -- 81
2018-05-06 01:00:00 10.6 4 Nordeste 13 Nordeste 0 -- -- 72
2018-05-06 00:00:00 11.5 8 Nordeste 20 Nordeste 0 -- -- 70
2018-05-05 23:00:00 12.9 13 Este 33 Este 0 -- -- 67
2018-05-05 22:00:00 14 22 Este 38 Este 0 -- -- 64
2018-05-05 21:00:00 15.6 23 Este 41 Sudeste 0 -- -- 58
2018-05-05 20:00:00 17.5 29 Este 42 Este 0 -- -- 52
2018-05-05 19:00:00 19.5 22 Este 49 Sudeste 0 -- -- 46
2018-05-05 18:00:00 19.9 27 Este 44 Sudeste 0 -- -- 45
2018-05-05 17:00:00 20.2 31 Sudeste 50 Sudeste 0 -- -- 44
2018-05-05 16:00:00 20.7 28 Sudeste 51 Este 0 -- -- 44
2018-05-05 15:00:00 20.6 21 Sudeste 39 Este 0 -- -- 44
2018-05-05 14:00:00 20 14 Este 31 Este 0 -- -- 47
2018-05-05 13:00:00 17.1 12 Oeste 17 Oeste 0 -- -- 49
2018-05-05 12:00:00 15.3 8 Sudoeste 14 Sudoeste 0 -- -- 48
2018-05-05 11:00:00 12.8 6 Oeste 12 Oeste 0 -- -- 53
2018-05-05 10:00:00 10 6 Nordeste 14 Nordeste 0 -- -- 58
2018-05-05 09:00:00 6 9 Nordeste 13 Nordeste 0 -- -- 71
2018-05-05 08:00:00 2 7 Nordeste 10 Nordeste 0 -- -- 85
2018-05-05 07:00:00 0.8 0 Calma 9 Nordeste 0 -- -- 83
2018-05-05 06:00:00 1.9 5 Nordeste 11 Nordeste 0 -- -- 82
2018-05-05 05:00:00 3.3 4 Norte 15 Nordeste 0 -- -- 77
2018-05-05 04:00:00 3.8 8 Este 12 Este 0 -- -- 77
2018-05-05 03:00:00 3.3 3 Nordeste 9 Sur 0 -- -- 78
2018-05-05 02:00:00 4.4 4 Sur 8 Sudoeste 0 -- -- 71
2018-05-05 01:00:00 5.7 4 Sudeste 15 Este 0 -- -- 65
2018-05-05 00:00:00 6.6 4 Norte 10 Nordeste 0 -- -- 63
2018-05-04 23:00:00 7.9 7 Este 20 Este 0 -- -- 60
2018-05-04 22:00:00 10.4 8 Sudeste 21 Este 0 -- -- 51
2018-05-04 21:00:00 14 12 Este 27 Este 0 -- -- 40
2018-05-04 20:00:00 16 17 Este 33 Sudeste 0 -- -- 36
2018-05-04 19:00:00 16.9 19 Este 32 Sudeste 0 -- -- 41
2018-05-04 18:00:00 17.4 11 Sudeste 26 Sudeste 0 -- -- 42
2018-05-04 17:00:00 16.9 18 Sudeste 28 Sudeste 0 -- -- 41
2018-05-04 16:00:00 16.4 18 Sudeste 32 Sudeste 0 -- -- 42
2018-05-04 15:00:00 15.9 7 Sudeste 24 Sudeste 0 -- -- 40
2018-05-04 14:00:00 14.6 14 Sur 23 Sur 0 -- -- 43
2018-05-04 13:00:00 13.6 6 Noroeste 16 Sudoeste 0 -- -- 41
2018-05-04 12:00:00 11.4 6 Sur 22 Sudoeste 0 -- -- 47
2018-05-04 11:00:00 9.6 3 Sudoeste 17 Sur 0 -- -- 53
2018-05-04 10:00:00 7.3 0 Calma 8 Oeste 0 -- -- 55
2018-05-04 09:00:00 3.9 0 Calma 6 Nordeste 0 -- -- 68
2018-05-04 08:00:00 -0.9 2 Este 9 Este 0 -- -- 87
2018-05-04 07:00:00 -2.7 2 Sudeste 6 Este 0 -- -- 85
2018-05-04 06:00:00 -2.2 4 Nordeste 6 Nordeste 0 -- -- 86
2018-05-04 05:00:00 -2.4 0 Calma 4 Este 0 -- -- 83
2018-05-04 04:00:00 -1.4 4 Este 6 Nordeste 0 -- -- 81
2018-05-04 03:00:00 -0.5 3 Sudeste 5 Sudeste 0 -- -- 77
2018-05-04 02:00:00 1 2 Sur 6 Sudeste 0 -- -- 73
2018-05-04 01:00:00 2.5 3 Sudeste 10 Nordeste 0 -- -- 67
2018-05-04 00:00:00 5 8 Norte 18 Norte 0 -- -- 57
2018-05-03 23:00:00 5.6 9 Norte 24 Norte 0 -- -- 56
2018-05-03 22:00:00 6.9 12 Norte 25 Norte 0 -- -- 53
2018-05-03 21:00:00 8.7 15 Norte 35 Norte 0 -- -- 49
2018-05-03 20:00:00 10.4 23 Norte 37 Norte 0 -- -- 43
2018-05-03 19:00:00 11.8 23 Norte 39 Nordeste 0 -- -- 42
2018-05-03 18:00:00 11.9 27 Nordeste 37 Nordeste 0 -- -- 43
2018-05-03 17:00:00 13.5 21 Norte 32 Norte 0 -- -- 43
2018-05-03 16:00:00 13.3 16 Norte 32 Norte 0 -- -- 43
2018-05-03 15:00:00 12.9 16 Norte 33 Nordeste 0 -- -- 46
2018-05-03 14:00:00 11.8 21 Norte 33 Norte 0 -- -- 47
2018-05-03 13:00:00 11.9 17 Norte 35 Norte 0 -- -- 45
2018-05-03 12:00:00 10.1 21 Nordeste 37 Nordeste 0 -- -- 49
2018-05-03 11:00:00 8.6 22 Nordeste 39 Norte 0 -- -- 54
2018-05-03 10:00:00 8.3 20 Norte 33 Norte 0 -- -- 60
2018-05-03 09:00:00 7.5 4 Norte 19 Norte 0 -- -- 68
2018-05-03 08:00:00 5.5 10 Nordeste 21 Norte 0 -- -- 79
2018-05-03 07:00:00 6.1 4 Nordeste 18 Nordeste 0 -- -- 76
2018-05-03 06:00:00 3.3 6 Nordeste 11 Este 0 -- -- 91
2018-05-03 05:00:00 4.3 6 Norte 15 Nordeste 0 -- -- 87
2018-05-03 04:00:00 4 2 Sudeste 9 Norte 0 -- -- 91
2018-05-03 03:00:00 4 4 Nordeste 6 Nordeste 0 -- -- 91
2018-05-03 02:00:00 4.4 4 Nordeste 7 Este 0 -- -- 88
2018-05-03 01:00:00 5.6 2 Este 7 Este 0 -- -- 86
2018-05-03 00:00:00 8 3 Noroeste 7 Noroeste 0 -- -- 79
2018-05-02 23:00:00 9.4 3 Noroeste 12 Norte 0 -- -- 75
2018-05-02 22:00:00 11.5 7 Norte 14 Norte 0 -- -- 68
2018-05-02 21:00:00 12.3 7 Norte 22 Nordeste 0 -- -- 67
2018-05-02 20:00:00 13.1 5 Noroeste 8 Norte 0 -- -- 63
2018-05-02 19:00:00 13.3 5 Oeste 13 Oeste 0 -- -- 64
2018-05-02 18:00:00 13.6 6 Noroeste 14 Oeste 0 -- -- 62
2018-05-02 17:00:00 12.7 7 Oeste 19 Oeste 0 -- -- 62
2018-05-02 16:00:00 12.9 12 Sudoeste 21 Oeste 0 -- -- 61
2018-05-02 15:00:00 12.5 10 Sudoeste 19 Sudoeste 0 -- -- 62
2018-05-02 14:00:00 11.4 7 Oeste 19 Oeste 0 -- -- 62
2018-05-02 13:00:00 10.3 9 Oeste 25 Oeste 0 -- -- 62
2018-05-02 12:00:00 9.1 12 Oeste 23 Oeste 0 -- -- 64
2018-05-02 11:00:00 8.3 13 Oeste 26 Sudoeste 0 -- -- 66
2018-05-02 10:00:00 7.1 13 Oeste 25 Noroeste 0 -- -- 68
2018-05-02 09:00:00 6.4 8 Oeste 18 Oeste 0 -- -- 61
2018-05-02 08:00:00 5.5 7 Oeste 15 Noroeste 0 -- -- 63
2018-05-02 07:00:00 5.8 9 Noroeste 18 Noroeste 0 -- -- 56
2018-05-02 06:00:00 5.9 6 Noroeste 15 Oeste 0 -- -- 68
2018-05-02 05:00:00 6 6 Sudoeste 12 Sudoeste 0 -- -- 75
2018-05-02 04:00:00 6.4 5 Sudoeste 10 Sudoeste 0 -- -- 68
2018-05-02 03:00:00 6.7 3 Sudoeste 13 Oeste 0 -- -- 61
2018-05-02 02:00:00 6.9 6 Sudoeste 13 Sudoeste 0 -- -- 62
2018-05-02 01:00:00 7.2 7 Sudoeste 13 Sudoeste 0 -- -- 64
2018-05-02 00:00:00 7.9 6 Sudoeste 15 Sudoeste 0 -- -- 60
2018-05-01 23:00:00 8.7 7 Sudoeste 18 Sudoeste 0 -- -- 59
2018-05-01 22:00:00 9.3 9 Sur 18 Sur 0 -- -- 57
2018-05-01 21:00:00 9.8 9 Sur 22 Sur 0 -- -- 52
2018-05-01 20:00:00 11.4 14 Sudoeste 27 Sudoeste 0 -- -- 45
2018-05-01 19:00:00 12 12 Sudoeste 27 Oeste 0 -- -- 44
2018-05-01 18:00:00 11.9 14 Sudoeste 28 Oeste 0 -- -- 43
2018-05-01 17:00:00 11.1 13 Sudoeste 26 Sudoeste 0 -- -- 44
2018-05-01 16:00:00 11.1 13 Oeste 26 Sudoeste 0 -- -- 46
2018-05-01 15:00:00 10.2 13 Sudoeste 26 Oeste 0 -- -- 49
2018-05-01 14:00:00 9.3 10 Oeste 23 Oeste 0 -- -- 49
2018-05-01 13:00:00 8.6 9 Sur 21 Sudoeste 0 -- -- 49
2018-05-01 12:00:00 7.4 7 Oeste 19 Oeste 0 -- -- 53
2018-05-01 11:00:00 6 5 Oeste 12 Oeste 0 -- -- 55
2018-05-01 10:00:00 4.4 0 Calma 6 Norte 0 -- -- 72
2018-05-01 09:00:00 1 2 Norte 9 Nordeste 0 -- -- 88
2018-05-01 08:00:00 -3 4 Este 7 Norte 0 -- -- 93
2018-05-01 07:00:00 -4.3 0 Calma 5 Nordeste 0 -- -- 92
2018-05-01 06:00:00 -3.5 0 Calma 6 Nordeste 0 -- -- 93
2018-05-01 05:00:00 -3.1 4 Nordeste 6 Este 0 -- -- 94
2018-05-01 04:00:00 -3 5 Este 6 Este 0 -- -- 93
2018-05-01 03:00:00 -2.5 0 Calma 4 Nordeste 0 -- -- 91
2018-05-01 02:00:00 -1.9 3 Este 6 Este 0 -- -- 90
2018-05-01 01:00:00 -1.2 3 Este 5 Este 0 -- -- 89
2018-05-01 00:00:00 0.3 2 Sudeste 10 Nordeste 0 -- -- 84
2018-04-30 23:00:00 1.9 6 Este 11 Nordeste 0 -- -- 78
2018-04-30 22:00:00 3.8 3 Nordeste 15 Norte 0 -- -- 72
2018-04-30 21:00:00 6 9 Norte 26 Nordeste 0 -- -- 64
2018-04-30 20:00:00 7.5 19 Norte 31 Nordeste 0 -- -- 58
2018-04-30 19:00:00 8.2 22 Nordeste 35 Norte 0 -- -- 56
2018-04-30 18:00:00 8.7 17 Norte 28 Norte 0 -- -- 63
2018-04-30 17:00:00 7.3 8 Oeste 15 Sudoeste 0.4 -- -- 77
2018-04-30 16:00:00 6.4 5 Sudoeste 12 Sudoeste 0.4 -- -- 78
2018-04-30 15:00:00 5.7 5 Oeste 13 Oeste 0.2 -- -- 87
2018-04-30 14:00:00 4.3 7 Sudoeste 13 Oeste 0.2 -- -- 90
2018-04-30 13:00:00 3.4 7 Oeste 13 Oeste 0.6 -- -- 91
2018-04-30 12:00:00 3.3 6 Sudoeste 12 Oeste 0.6 -- -- 90
2018-04-30 11:00:00 2.9 6 Sudoeste 14 Oeste 0 -- -- 88
2018-04-30 10:00:00 1.7 5 Sudoeste 10 Sudoeste 0 -- -- 92
2018-04-30 09:00:00 0.6 4 Sudoeste 8 Sudoeste 0 -- -- 96
2018-04-30 08:00:00 -0.1 5 Sudoeste 12 Sudoeste 0 -- -- 96
2018-04-30 07:00:00 -0.5 2 Sudoeste 10 Sudoeste 0 -- -- 94
2018-04-30 06:00:00 -0.1 4 Sudoeste 12 Oeste 0 -- -- 93
2018-04-30 05:00:00 0.1 4 Sudoeste 13 Sudoeste 0 -- -- 91
2018-04-30 04:00:00 0.9 6 Sudoeste 15 Sudoeste 0 -- -- 87
2018-04-30 03:00:00 1.4 8 Oeste 18 Oeste 0 -- -- 88
2018-04-30 02:00:00 1.7 8 Oeste 21 Oeste 0 -- -- 84
2018-04-30 01:00:00 2.1 10 Oeste 22 Oeste 0 -- -- 84
2018-04-30 00:00:00 2.7 9 Sudoeste 16 Sudoeste 0 -- -- 86
2018-04-29 23:00:00 3.4 10 Oeste 27 Oeste 0 -- -- 86
2018-04-29 22:00:00 4.1 15 Oeste 31 Sudoeste 0 -- -- 84
2018-04-29 21:00:00 5.2 13 Sudoeste 25 Sudoeste 0 -- -- 84
2018-04-29 20:00:00 5 13 Sudoeste 41 Sudoeste 0.2 -- -- 79
2018-04-29 19:00:00 6.6 16 Sudoeste 44 Oeste 0 -- -- 77
2018-04-29 18:00:00 8.4 14 Sudoeste 30 Oeste 0 -- -- 68
2018-04-29 17:00:00 7.8 19 Oeste 35 Oeste 0 -- -- 71
2018-04-29 16:00:00 7.4 6 Oeste 15 Oeste 0 -- -- 80
2018-04-29 15:00:00 4.9 9 Oeste 20 Oeste 2.2 -- -- 93
2018-04-29 14:00:00 6.4 6 Oeste 22 Sudoeste 0 -- -- 79
2018-04-29 13:00:00 7.7 13 Sudoeste 26 Sudoeste 0 -- -- 70
2018-04-29 12:00:00 6.8 11 Sudoeste 26 Sudoeste 0 -- -- 77
2018-04-29 11:00:00 6.2 12 Oeste 22 Oeste 0 -- -- 79
2018-04-29 10:00:00 4.6 3 Oeste 7 Noroeste 0 -- -- 89
2018-04-29 09:00:00 2.9 0 Calma 5 Nordeste 0 -- -- 96
2018-04-29 08:00:00 0.6 3 Nordeste 6 Nordeste 0 -- -- 96
2018-04-29 07:00:00 -0.5 0 Calma 4 Este 0 -- -- 95
2018-04-29 06:00:00 0.5 2 Nordeste 7 Nordeste 0 -- -- 96
2018-04-29 05:00:00 0.1 4 Este 6 Este 0 -- -- 94
2018-04-29 04:00:00 1.3 0 Calma 4 Este 0 -- -- 94
2018-04-29 03:00:00 2.9 4 Nordeste 12 Nordeste 0 -- -- 88
2018-04-29 02:00:00 4.2 8 Nordeste 17 Nordeste 0 -- -- 90
2018-04-29 01:00:00 4.7 8 Nordeste 19 Norte 0.2 -- -- 90
2018-04-29 00:00:00 4.6 5 Oeste 10 Oeste 0.2 -- -- 91
2018-04-28 23:00:00 4.3 5 Este 13 Oeste 0 -- -- 93
2018-04-28 22:00:00 4.4 6 Nordeste 10 Nordeste 0 -- -- 90
2018-04-28 21:00:00 5.5 6 Nordeste 21 Nordeste 0 -- -- 85
2018-04-28 20:00:00 5.9 15 Nordeste 21 Norte 0 -- -- 84
2018-04-28 19:00:00 7.1 12 Norte 26 Norte 0 -- -- 81
2018-04-28 18:00:00 7.2 6 Nordeste 14 Nordeste 0.8 -- -- 86
2018-04-28 17:00:00 7.4 6 Sudoeste 32 Sudoeste 1.4 -- -- 82
2018-04-28 16:00:00 10.4 14 Sudeste 32 Sudeste 0 -- -- 61
2018-04-28 15:00:00 9.7 7 Este 18 Sudoeste 0.2 -- -- 78
2018-04-28 14:00:00 9.4 11 Oeste 21 Oeste 0 -- -- 75
2018-04-28 13:00:00 9.7 7 Sur 18 Sudeste 0 -- -- 70
2018-04-28 12:00:00 8.6 6 Este 14 Este 0 -- -- 76
2018-04-28 11:00:00 7.5 5 Este 13 Este 0 -- -- 76
2018-04-28 10:00:00 7.2 12 Este 15 Este 0 -- -- 77
2018-04-28 09:00:00 6.9 7 Nordeste 14 Nordeste 0 -- -- 76
2018-04-28 08:00:00 6.8 6 Nordeste 11 Este 0 -- -- 78
2018-04-28 07:00:00 6.6 4 Este 8 Nordeste 0 -- -- 78
2018-04-28 06:00:00 6.5 4 Nordeste 10 Nordeste 0 -- -- 77
2018-04-28 05:00:00 6.5 7 Este 18 Este 0 -- -- 77
2018-04-28 04:00:00 6.6 6 Este 15 Este 0 -- -- 78
2018-04-28 03:00:00 6.8 5 Sudeste 10 Sudeste 0 -- -- 79
2018-04-28 02:00:00 6.4 2 Norte 15 Este 0 -- -- 80
2018-04-28 01:00:00 6.2 8 Este 17 Este 0 -- -- 81
2018-04-28 00:00:00 7.5 9 Nordeste 20 Nordeste 0 -- -- 77